Time;durP1;ratioP1;P1;durP2;ratioP2;P2;SDS_P1;SDS_P2;PMS_P1;PMS_P2;Temp;Humidity;BMP_temperature;BMP_pressure;BME280_temperature;BME280_humidity;BME280_pressure;Samples;Min_cycle;Max_cycle;Signal;HPM_P1;HPM_P2
2020/12/10 00:00:16;;;;;;;26.15;21.42;;;;;;;0.11;100.00;95186.06;1049623;28;20032;-80
2020/12/10 00:00:47;;;;;;;22.13;18.67;;;;;;;0.10;100.00;95192.28;1047902;28;20025;-80
2020/12/10 00:01:19;;;;;;;24.10;19.88;;;;;;;0.13;100.00;95186.69;1048797;28;20024;-80
2020/12/10 00:01:50;;;;;;;24.50;19.45;;;;;;;0.14;100.00;95188.28;1048857;28;20024;-80
2020/12/10 00:02:21;;;;;;;22.45;18.40;;;;;;;0.16;100.00;95181.06;1051605;28;20030;-80
2020/12/10 00:02:51;;;;;;;22.05;18.60;;;;;;;0.15;100.00;95184.66;1052878;28;20035;-79
2020/12/10 00:03:22;;;;;;;22.52;18.42;;;;;;;0.17;100.00;95182.66;1054610;28;20028;-80
2020/12/10 00:03:52;;;;;;;28.70;21.15;;;;;;;0.12;100.00;95182.44;1054454;28;20436;-80
2020/12/10 00:04:22;;;;;;;20.00;17.80;;;;;;;0.16;100.00;95178.44;1054468;28;20097;-81
2020/12/10 00:04:53;;;;;;;23.02;18.10;;;;;;;0.13;100.00;95177.06;1054415;28;20417;-80
2020/12/10 00:05:23;;;;;;;23.70;19.38;;;;;;;0.14;100.00;95178.66;1058727;28;20016;-80
2020/12/10 00:05:55;;;;;;;23.58;19.15;;;;;;;0.13;100.00;95184.09;1058355;28;20028;-80
2020/12/10 00:06:25;;;;;;;23.02;18.30;;;;;;;0.13;100.00;95178.88;1058242;28;20047;-80
2020/12/10 00:06:55;;;;;;;22.23;18.23;;;;;;;0.12;100.00;95182.44;1058167;28;20023;-80
2020/12/10 00:07:26;;;;;;;23.70;19.30;;;;;;;0.03;100.00;95178.50;1054128;28;20032;-80
2020/12/10 00:07:57;;;;;;;26.33;20.73;;;;;;;0.06;100.00;95183.28;1052735;28;20031;-80
2020/12/10 00:08:27;;;;;;;24.13;19.38;;;;;;;0.10;100.00;95179.25;1052766;28;20061;-80
2020/12/10 00:08:58;;;;;;;22.83;18.45;;;;;;;0.13;100.00;95176.25;1052832;28;20380;-80
2020/12/10 00:09:28;;;;;;;24.73;18.95;;;;;;;0.14;100.00;95180.47;1053027;28;20515;-80
2020/12/10 00:09:59;;;;;;;25.05;19.75;;;;;;;0.14;100.00;95172.66;1054273;28;20093;-80
2020/12/10 00:10:29;;;;;;;26.48;20.13;;;;;;;0.16;100.00;95173.25;1054080;28;20031;-80
2020/12/10 00:11:00;;;;;;;25.88;20.67;;;;;;;0.13;100.00;95176.25;1053624;28;20107;-80
2020/12/10 00:11:32;;;;;;;24.70;18.98;;;;;;;0.13;100.00;95171.06;1054447;28;20049;-80
2020/12/10 00:12:03;;;;;;;25.10;20.10;;;;;;;0.04;100.00;95174.88;1054308;28;20032;-80
2020/12/10 00:12:34;;;;;;;23.23;19.77;;;;;;;0.04;100.00;95172.28;1054162;28;20028;-80
2020/12/10 00:13:04;;;;;;;23.50;19.40;;;;;;;0.03;100.00;95171.47;1052681;28;20016;-80
2020/12/10 00:13:35;;;;;;;28.90;20.25;;;;;;;0.03;100.00;95174.09;1052657;28;20049;-80
2020/12/10 00:14:05;;;;;;;26.80;20.52;;;;;;;0.04;100.00;95180.09;1054373;28;20495;-80
2020/12/10 00:14:36;;;;;;;23.83;19.85;;;;;;;0.06;100.00;95175.47;1055921;28;20032;-80
2020/12/10 00:15:06;;;;;;;21.63;18.08;;;;;;;0.09;100.00;95177.66;1053397;28;20036;-80
2020/12/10 00:15:37;;;;;;;23.67;18.40;;;;;;;0.08;100.00;95168.25;1052799;28;20491;-80
2020/12/10 00:16:10;;;;;;;26.95;20.83;;;;;;;0.01;100.00;95170.91;1052207;28;20051;-79
2020/12/10 00:16:40;;;;;;;29.38;21.20;;;;;;;-0.03;100.00;95174.91;1053006;28;20024;-79
2020/12/10 00:17:11;;;;;;;24.80;20.63;;;;;;;-0.03;100.00;95174.91;1052822;28;20036;-80
2020/12/10 00:17:41;;;;;;;22.25;19.00;;;;;;;0.04;100.00;95169.69;1052573;28;20492;-79
2020/12/10 00:18:12;;;;;;;28.35;20.77;;;;;;;0.02;100.00;95171.69;1052701;28;20465;-79
2020/12/10 00:18:42;;;;;;;27.27;20.48;;;;;;;0.02;100.00;95163.88;1053063;28;20024;-80
2020/12/10 00:19:13;;;;;;;22.23;18.48;;;;;;;0.08;100.00;95170.84;1052505;28;20079;-80
2020/12/10 00:19:43;;;;;;;23.88;19.35;;;;;;;0.10;100.00;95161.81;1052246;28;20035;-80
2020/12/10 00:20:13;;;;;;;22.27;18.90;;;;;;;0.13;100.00;95173.66;1052319;28;20028;-82
2020/12/10 00:20:44;;;;;;;22.60;19.38;;;;;;;0.13;100.00;95163.25;1052737;28;20024;-83
2020/12/10 00:21:19;;;;;;;22.67;18.13;;;;;;;0.17;100.00;95167.03;1052845;28;20461;-83
2020/12/10 00:21:49;;;;;;;23.10;19.10;;;;;;;0.08;100.00;95176.88;1052579;28;20036;-83
2020/12/10 00:22:20;;;;;;;28.90;20.65;;;;;;;-0.02;100.00;95177.28;1052271;28;20070;-83
2020/12/10 00:22:50;;;;;;;23.35;19.20;;;;;;;-0.02;100.00;95172.06;1048209;28;20021;-83
2020/12/10 00:23:21;;;;;;;26.55;19.40;;;;;;;-0.05;100.00;95169.91;1048201;28;20036;-83
2020/12/10 00:23:51;;;;;;;25.20;19.33;;;;;;;-0.03;100.00;95165.28;1048316;28;20029;-82
2020/12/10 00:24:21;;;;;;;23.75;19.70;;;;;;;0.02;100.00;95169.09;1052324;28;20369;-83
2020/12/10 00:24:52;;;;;;;22.48;18.85;;;;;;;0.08;100.00;95169.03;1052918;28;20020;-82
2020/12/10 00:25:22;;;;;;;20.98;17.58;;;;;;;0.09;100.00;95167.25;1052535;28;20059;-83
2020/12/10 00:25:53;;;;;;;22.50;18.75;;;;;;;0.13;100.00;95171.84;1051801;28;20469;-84
2020/12/10 00:26:24;;;;;;;22.77;19.10;;;;;;;0.14;100.00;95167.44;1052397;28;20105;-84
2020/12/10 00:26:54;;;;;;;24.40;19.17;;;;;;;0.10;100.00;95169.63;1048364;28;20025;-83
2020/12/10 00:27:25;;;;;;;24.92;20.23;;;;;;;0.05;100.00;95164.25;1052501;28;20024;-83
2020/12/10 00:27:55;;;;;;;21.55;18.67;;;;;;;0.08;100.00;95165.66;1052448;28;20063;-81
2020/12/10 00:28:27;;;;;;;21.10;18.38;;;;;;;0.09;100.00;95167.25;1052382;28;20020;-82
2020/12/10 00:28:57;;;;;;;24.00;19.08;;;;;;;0.06;100.00;95168.47;1052797;28;20024;-81
2020/12/10 00:29:27;;;;;;;21.48;17.77;;;;;;;0.12;100.00;95166.81;1052428;28;20108;-81
2020/12/10 00:29:58;;;;;;;23.08;19.55;;;;;;;0.11;100.00;95170.44;1052344;28;20016;-81
2020/12/10 00:30:28;;;;;;;26.30;21.27;;;;;;;0.13;100.00;95163.25;1052351;28;20047;-81
2020/12/10 00:31:00;;;;;;;25.85;19.88;;;;;;;0.09;100.00;95159.41;1052435;28;20483;-82
2020/12/10 00:31:31;;;;;;;21.27;18.38;;;;;;;0.12;100.00;95161.59;1052662;28;20024;-81
2020/12/10 00:32:02;;;;;;;22.02;18.58;;;;;;;0.13;100.00;95164.03;1052833;28;20472;-81
2020/12/10 00:32:33;;;;;;;19.67;17.30;;;;;;;0.14;100.00;95160.41;1052699;28;20632;-81
2020/12/10 00:33:05;;;;;;;23.10;19.40;;;;;;;0.19;100.00;95162.41;1052796;28;20024;-82
2020/12/10 00:33:37;;;;;;;23.50;18.80;;;;;;;0.19;100.00;95159.78;1052377;28;20024;-82
2020/12/10 00:34:08;;;;;;;19.17;16.90;;;;;;;0.14;100.00;95160.41;1051904;28;20105;-82
2020/12/10 00:34:38;;;;;;;21.52;18.05;;;;;;;0.16;100.00;95157.59;1052568;28;20069;-81
2020/12/10 00:35:09;;;;;;;21.08;17.65;;;;;;;0.21;100.00;95161.19;1051920;28;20048;-82
2020/12/10 00:35:39;;;;;;;20.15;17.35;;;;;;;0.20;100.00;95153.56;1051858;28;20383;-81
2020/12/10 00:36:14;;;;;;;20.35;17.27;;;;;;;0.19;100.00;95151.97;1052272;28;20027;-82
2020/12/10 00:36:45;;;;;;;21.33;16.65;;;;;;;0.20;100.00;95156.97;1048971;28;20361;-82
2020/12/10 00:37:17;;;;;;;23.02;18.58;;;;;;;0.20;100.00;95154.38;1052405;28;20020;-81
2020/12/10 00:37:47;;;;;;;21.92;17.80;;;;;;;0.17;100.00;95154.00;1051563;28;20047;-81
2020/12/10 00:38:19;;;;;;;29.05;20.50;;;;;;;0.13;100.00;95156.22;1052223;28;20396;-82
2020/12/10 00:38:49;;;;;;;23.67;18.80;;;;;;;0.07;100.00;95151.81;1047995;28;20111;-82
2020/12/10 00:39:19;;;;;;;23.08;18.38;;;;;;;0.08;100.00;95150.00;1047612;28;20040;-82
2020/12/10 00:39:50;;;;;;;22.35;18.45;;;;;;;0.11;100.00;95149.59;1048109;28;20029;-81
2020/12/10 00:40:20;;;;;;;23.83;19.55;;;;;;;0.18;100.00;95152.97;1043859;28;20028;-82
2020/12/10 00:40:52;;;;;;;21.02;18.45;;;;;;;0.19;100.00;95147.56;1052354;28;20380;-82
2020/12/10 00:41:22;;;;;;;24.85;19.77;;;;;;;0.15;100.00;95142.97;1052228;28;20094;-82
2020/12/10 00:41:53;;;;;;;19.48;16.35;;;;;;;0.20;100.00;95154.38;1052257;28;20401;-82
2020/12/10 00:42:24;;;;;;;22.25;18.25;;;;;;;0.16;100.00;95152.38;1052065;28;20425;-82
2020/12/10 00:42:54;;;;;;;21.08;16.73;;;;;;;0.16;100.00;95152.38;1052267;28;20032;-81
2020/12/10 00:43:26;;;;;;;22.73;17.75;;;;;;;0.19;100.00;95151.97;1052231;28;20027;-81
2020/12/10 00:43:56;;;;;;;23.13;18.13;;;;;;;0.20;100.00;95143.94;1052297;28;20058;-81
2020/12/10 00:44:27;;;;;;;22.10;18.10;;;;;;;0.22;100.00;95149.75;1052388;28;20090;-81
2020/12/10 00:44:57;;;;;;;23.23;18.80;;;;;;;0.17;100.00;95154.00;1052343;28;20093;-81
2020/12/10 00:45:28;;;;;;;22.38;18.20;;;;;;;0.13;100.00;95148.41;1052209;28;20480;-81
2020/12/10 00:46:03;;;;;;;26.05;20.23;;;;;;;0.15;100.00;95140.38;1044057;28;20021;-81
2020/12/10 00:46:33;;;;;;;23.58;18.73;;;;;;;0.18;100.00;95147.75;1044645;28;20031;-81
2020/12/10 00:47:04;;;;;;;21.08;17.33;;;;;;;0.21;100.00;95149.94;1048238;28;20029;-81
2020/12/10 00:47:34;;;;;;;21.73;17.70;;;;;;;0.23;100.00;95151.34;1048787;28;20485;-80
2020/12/10 00:48:04;;;;;;;24.00;19.13;;;;;;;0.21;100.00;95144.75;1052209;28;20496;-81
2020/12/10 00:48:35;;;;;;;22.00;18.08;;;;;;;0.24;100.00;95147.75;1052115;28;20027;-81
2020/12/10 00:49:06;;;;;;;24.90;18.65;;;;;;;0.26;100.00;95147.53;1047614;28;20032;-82
2020/12/10 00:49:36;;;;;;;19.38;16.75;;;;;;;0.21;100.00;95147.34;1045751;28;20025;-83
2020/12/10 00:50:08;;;;;;;22.42;17.45;;;;;;;0.19;100.00;95141.53;1046042;28;20467;-83
2020/12/10 00:50:39;;;;;;;21.80;18.23;;;;;;;0.18;100.00;95145.16;1056544;28;20034;-83
2020/12/10 00:51:09;;;;;;;21.63;18.08;;;;;;;0.21;100.00;95144.75;1060706;28;20045;-83
2020/12/10 00:51:45;;;;;;;24.10;19.02;;;;;;;0.22;100.00;95141.13;1055477;28;20020;-83
2020/12/10 00:52:16;;;;;;;22.33;17.40;;;;;;;0.19;100.00;95142.34;1054012;28;20055;-82
2020/12/10 00:52:46;;;;;;;22.63;18.60;;;;;;;0.23;100.00;95143.53;1049463;28;20505;-83
2020/12/10 00:53:17;;;;;;;20.80;18.05;;;;;;;0.15;100.00;95141.16;1052334;28;20445;-83
2020/12/10 00:53:47;;;;;;;20.58;17.33;;;;;;;0.18;100.00;95135.53;1052480;28;20027;-82
2020/12/10 00:54:20;;;;;;;21.17;18.00;;;;;;;0.22;100.00;95149.75;1052512;28;20465;-83
2020/12/10 00:54:50;;;;;;;22.05;18.08;;;;;;;0.17;100.00;95141.75;1052042;28;20073;-83
2020/12/10 00:55:20;;;;;;;23.13;19.10;;;;;;;0.12;100.00;95141.59;1052588;28;20024;-83
2020/12/10 00:55:54;;;;;;;22.70;18.92;;;;;;;0.10;100.00;95138.38;1052526;28;20366;-83
2020/12/10 00:56:26;;;;;;;19.88;16.85;;;;;;;0.16;100.00;95144.56;1052076;28;20032;-83
2020/12/10 00:56:57;;;;;;;23.27;18.40;;;;;;;0.14;100.00;95149.19;1048141;28;20025;-82
2020/12/10 00:57:27;;;;;;;20.40;17.67;;;;;;;0.12;100.00;95140.75;1048088;28;20058;-83
2020/12/10 00:57:57;;;;;;;21.65;17.95;;;;;;;0.15;100.00;95142.97;1048496;28;20105;-83
2020/12/10 00:58:28;;;;;;;23.83;18.38;;;;;;;0.18;100.00;95150.38;1052077;28;20104;-83
2020/12/10 00:59:00;;;;;;;23.00;17.77;;;;;;;0.14;100.00;95138.78;1052233;28;20435;-82
2020/12/10 00:59:30;;;;;;;26.17;19.65;;;;;;;0.08;100.00;95145.59;1051560;28;20069;-83
2020/12/10 01:00:00;;;;;;;24.17;18.40;;;;;;;0.10;100.00;95145.38;1047711;28;20029;-82
2020/12/10 01:00:31;;;;;;;23.27;18.98;;;;;;;0.10;100.00;95142.78;1048301;28;20025;-83
2020/12/10 01:01:01;;;;;;;22.60;17.50;;;;;;;0.12;100.00;95148.59;1047866;28;20024;-82
2020/12/10 01:01:32;;;;;;;25.70;19.77;;;;;;;0.09;100.00;95141.97;1048215;28;20016;-83
2020/12/10 01:02:03;;;;;;;23.75;18.08;;;;;;;0.09;100.00;95146.41;1052262;28;20032;-83
2020/12/10 01:02:33;;;;;;;24.77;19.63;;;;;;;0.02;100.00;95141.22;1052246;28;20016;-81
2020/12/10 01:03:04;;;;;;;23.88;19.77;;;;;;;0.11;100.00;95144.38;1052628;28;20028;-82
2020/12/10 01:03:34;;;;;;;21.00;17.67;;;;;;;0.15;100.00;95145.59;1052569;28;20024;-82
2020/12/10 01:04:07;;;;;;;24.48;19.85;;;;;;;0.12;100.00;95138.97;1052605;28;20577;-82
2020/12/10 01:04:38;;;;;;;23.30;19.63;;;;;;;0.07;100.00;95144.00;1051096;28;20408;-82
2020/12/10 01:05:09;;;;;;;25.20;19.73;;;;;;;0.11;100.00;95144.38;1052107;28;20024;-82
2020/12/10 01:05:40;;;;;;;23.13;19.10;;;;;;;0.14;100.00;95139.56;1051316;28;20035;-82
2020/12/10 01:06:11;;;;;;;22.73;19.10;;;;;;;0.19;100.00;95139.75;1052392;28;20381;-82
2020/12/10 01:06:42;;;;;;;24.63;19.70;;;;;;;0.16;100.00;95136.75;1052517;28;20495;-82
2020/12/10 01:07:12;;;;;;;26.08;20.13;;;;;;;0.12;100.00;95130.34;1052600;28;20023;-82
2020/12/10 01:07:43;;;;;;;20.17;17.48;;;;;;;0.18;100.00;95137.34;1051939;28;20024;-82
2020/12/10 01:08:13;;;;;;;21.02;18.15;;;;;;;0.24;100.00;95131.31;1051335;28;20138;-82
2020/12/10 01:08:45;;;;;;;21.40;17.92;;;;;;;0.27;100.00;95134.31;1052297;28;20087;-82
2020/12/10 01:09:15;;;;;;;20.83;17.35;;;;;;;0.30;100.00;95138.28;1052369;28;20035;-80
2020/12/10 01:09:46;;;;;;;20.65;17.63;;;;;;;0.29;100.00;95136.69;1052014;28;20036;-82
2020/12/10 01:10:16;;;;;;;22.98;18.25;;;;;;;0.34;100.00;95133.44;1053454;28;20028;-82
2020/12/10 01:10:48;;;;;;;21.48;17.77;;;;;;;0.30;100.00;95135.69;1052644;28;20019;-83
2020/12/10 01:11:25;;;;;;;21.67;18.23;;;;;;;0.28;100.00;95140.31;1052477;28;20123;-82
2020/12/10 01:11:56;;;;;;;23.55;18.45;;;;;;;0.26;100.00;95137.91;1052579;28;20012;-78
2020/12/10 01:12:27;;;;;;;21.13;15.75;;;;;;;0.26;100.00;95142.31;1052451;28;20008;-83
2020/12/10 01:12:59;;;;;;;23.02;17.90;;;;;;;0.27;100.00;95143.94;1052534;28;20039;-79
2020/12/10 01:13:30;;;;;;;24.75;19.45;;;;;;;0.24;100.00;95139.94;1052178;28;20111;-79
2020/12/10 01:14:01;;;;;;;26.45;20.65;;;;;;;0.25;100.00;95138.94;1052123;28;20058;-86
2020/12/10 01:14:32;;;;;;;19.67;17.13;;;;;;;0.23;100.00;95142.72;1047759;28;20028;-78
2020/12/10 01:15:03;;;;;;;21.85;17.08;;;;;;;0.18;100.00;95145.97;1043812;28;20025;-79
2020/12/10 01:15:33;;;;;;;20.83;16.73;;;;;;;0.20;100.00;95143.94;1044185;28;20024;-80
2020/12/10 01:16:04;;;;;;;22.13;17.80;;;;;;;0.20;100.00;95138.72;1048340;28;20021;-80
2020/12/10 01:16:35;;;;;;;24.83;18.85;;;;;;;0.17;100.00;95143.56;1052101;28;20054;-80
2020/12/10 01:17:05;;;;;;;23.83;19.13;;;;;;;0.20;100.00;95137.94;1052497;28;20020;-80
2020/12/10 01:17:36;;;;;;;23.17;18.40;;;;;;;0.21;100.00;95144.75;1052517;28;20358;-80
2020/12/10 01:18:06;;;;;;;20.42;17.42;;;;;;;0.17;100.00;95139.16;1051918;28;20036;-79
2020/12/10 01:18:37;;;;;;;19.95;16.80;;;;;;;0.17;100.00;95140.97;1052393;28;20283;-80
2020/12/10 01:19:10;;;;;;;22.63;17.48;;;;;;;0.18;100.00;95137.34;1052483;28;20415;-80
2020/12/10 01:19:40;;;;;;;21.83;17.75;;;;;;;0.18;100.00;95142.56;1052600;28;20069;-79
2020/12/10 01:20:10;;;;;;;20.42;17.00;;;;;;;0.22;100.00;95139.31;1052341;28;20113;-80
2020/12/10 01:20:41;;;;;;;21.02;17.58;;;;;;;0.24;100.00;95141.75;1052141;28;20012;-81
2020/12/10 01:21:12;;;;;;;21.20;17.52;;;;;;;0.21;100.00;95134.31;1047952;28;20040;-81
2020/12/10 01:21:43;;;;;;;18.23;15.60;;;;;;;0.26;100.00;95142.31;1048006;28;20055;-80
2020/12/10 01:22:13;;;;;;;18.73;15.30;;;;;;;0.27;100.00;95133.50;1047815;28;20476;-82
2020/12/10 01:22:44;;;;;;;18.63;16.35;;;;;;;0.30;100.00;95135.69;1051544;28;20446;-82
2020/12/10 01:23:14;;;;;;;22.60;17.83;;;;;;;0.29;100.00;95140.09;1051856;28;20059;-82
2020/12/10 01:23:44;;;;;;;19.83;16.33;;;;;;;0.30;100.00;95135.69;1052284;28;20046;-82
2020/12/10 01:24:15;;;;;;;21.73;18.00;;;;;;;0.31;100.00;95137.28;1052859;28;20059;-82
2020/12/10 01:24:45;;;;;;;22.13;17.50;;;;;;;0.29;100.00;95142.69;1051917;28;20128;-82
2020/12/10 01:25:17;;;;;;;18.20;16.17;;;;;;;0.31;100.00;95134.66;1044715;28;20025;-82
2020/12/10 01:25:47;;;;;;;19.38;16.23;;;;;;;0.30;100.00;95138.28;1048864;28;20044;-82
2020/12/10 01:26:17;;;;;;;20.77;17.38;;;;;;;0.28;100.00;95146.31;1048738;28;20121;-82
2020/12/10 01:26:48;;;;;;;20.10;16.83;;;;;;;0.29;100.00;95144.50;1048901;28;20024;-82
2020/12/10 01:27:24;;;;;;;21.15;16.85;;;;;;;0.30;100.00;95146.09;1053299;28;20380;-82
2020/12/10 01:27:55;;;;;;;17.95;15.75;;;;;;;0.31;100.00;95139.88;1053380;28;20081;-81
2020/12/10 01:28:25;;;;;;;18.92;16.08;;;;;;;0.29;100.00;95137.50;1053011;28;20069;-81
2020/12/10 01:28:56;;;;;;;20.15;15.50;;;;;;;0.26;100.00;95140.53;1048731;28;20119;-82
2020/12/10 01:29:27;;;;;;;19.55;16.25;;;;;;;0.29;100.00;95142.69;1048061;28;20457;-82
2020/12/10 01:29:57;;;;;;;18.40;16.15;;;;;;;0.26;100.00;95139.72;1048960;28;20028;-82
2020/12/10 01:30:28;;;;;;;20.90;16.60;;;;;;;0.25;100.00;95141.53;1048736;28;20120;-82
2020/12/10 01:30:58;;;;;;;21.92;17.83;;;;;;;0.25;100.00;95140.72;1053210;28;20020;-81
2020/12/10 01:31:29;;;;;;;20.17;17.25;;;;;;;0.21;100.00;95135.13;1052876;28;20056;-81
2020/12/10 01:31:59;;;;;;;20.45;17.13;;;;;;;0.17;100.00;95133.94;1052441;28;20031;-80
2020/12/10 01:32:30;;;;;;;22.35;17.10;;;;;;;0.19;100.00;95137.13;1053252;28;20035;-81
2020/12/10 01:33:01;;;;;;;20.10;16.15;;;;;;;0.19;100.00;95134.53;1053224;28;20046;-81
2020/12/10 01:33:32;;;;;;;18.45;16.20;;;;;;;0.26;100.00;95134.50;1053238;28;20020;-81
2020/12/10 01:34:02;;;;;;;19.38;16.15;;;;;;;0.27;100.00;95136.91;1053082;28;20031;-81
2020/12/10 01:34:33;;;;;;;19.42;16.52;;;;;;;0.30;100.00;95133.06;1052903;28;20023;-81
2020/12/10 01:35:03;;;;;;;19.10;16.42;;;;;;;0.29;100.00;95136.69;1052663;28;20554;-81
2020/12/10 01:35:34;;;;;;;17.80;15.35;;;;;;;0.30;100.00;95135.69;1048775;28;20025;-79
2020/12/10 01:36:05;;;;;;;18.55;16.08;;;;;;;0.28;100.00;95130.69;1053018;28;20035;-79
2020/12/10 01:36:36;;;;;;;19.35;16.55;;;;;;;0.29;100.00;95131.47;1052784;28;20105;-79
2020/12/10 01:37:07;;;;;;;23.13;18.63;;;;;;;0.29;100.00;95131.47;1052933;28;20031;-79
2020/12/10 01:37:38;;;;;;;22.73;17.95;;;;;;;0.27;100.00;95126.47;1052519;28;20145;-79
2020/12/10 01:38:10;;;;;;;20.65;17.35;;;;;;;0.33;100.00;95129.25;1048815;28;20024;-79
2020/12/10 01:38:40;;;;;;;21.23;17.27;;;;;;;0.29;100.00;95132.28;1044345;28;20029;-79
2020/12/10 01:39:10;;;;;;;24.70;19.15;;;;;;;0.17;100.00;95130.53;1044681;28;20028;-79
2020/12/10 01:39:41;;;;;;;22.25;17.75;;;;;;;0.15;100.00;95129.94;1044637;28;20020;-79
2020/12/10 01:40:11;;;;;;;21.17;17.17;;;;;;;0.13;100.00;95126.75;1045570;28;20024;-80
2020/12/10 01:40:48;;;;;;;20.55;17.63;;;;;;;0.13;100.00;95124.16;1053009;28;20016;-80
2020/12/10 01:41:19;;;;;;;23.15;17.58;;;;;;;0.16;100.00;95126.34;1052620;28;20080;-80
2020/12/10 01:41:51;;;;;;;23.17;16.98;;;;;;;0.12;100.00;95130.34;1052439;28;20040;-80
2020/12/10 01:42:21;;;;;;;20.77;18.10;;;;;;;0.15;100.00;95119.53;1053020;28;20028;-80
2020/12/10 01:42:52;;;;;;;21.02;17.33;;;;;;;0.16;100.00;95128.94;1052820;28;20027;-80
2020/12/10 01:43:23;;;;;;;25.70;18.48;;;;;;;0.09;100.00;95125.56;1053490;28;20028;-80
2020/12/10 01:44:14;;;;;;;22.27;18.00;;;;;;;0.07;100.00;95124.97;1053323;28;20024;-80
2020/12/10 01:44:45;;;;;;;22.73;18.23;;;;;;;0.01;100.00;95124.00;1061047;27;20019;-78
2020/12/10 01:45:15;;;;;;;21.80;17.20;;;;;;;0.07;100.00;95122.34;1061350;27;20023;-78
2020/12/10 01:45:46;;;;;;;23.00;18.05;;;;;;;0.10;100.00;95121.94;1061325;27;20019;-78
2020/12/10 01:46:17;;;;;;;20.92;17.17;;;;;;;0.12;100.00;95125.13;1061095;27;20491;-80
2020/12/10 01:46:47;;;;;;;28.95;19.10;;;;;;;0.05;100.00;95124.38;1053222;28;20012;-80
2020/12/10 01:47:18;;;;;;;23.27;18.35;;;;;;;0.11;100.00;95120.94;1053131;28;20040;-81
2020/12/10 01:47:51;;;;;;;21.55;17.38;;;;;;;0.08;100.00;95116.94;1052910;28;20012;-78
2020/12/10 01:48:21;;;;;;;22.27;17.30;;;;;;;0.10;100.00;95116.72;1052928;28;20028;-80
2020/12/10 01:48:52;;;;;;;19.88;16.80;;;;;;;0.09;100.00;95118.53;1052908;28;20008;-79
2020/12/10 01:49:24;;;;;;;20.17;17.02;;;;;;;0.09;100.00;95115.94;1052795;28;20012;-79
2020/12/10 01:49:55;;;;;;;20.10;16.25;;;;;;;0.07;100.00;95119.75;1052861;28;20362;-79
2020/12/10 01:50:25;;;;;;;22.95;18.05;;;;;;;0.07;100.00;95122.34;1044966;28;20025;-79
2020/12/10 01:50:55;;;;;;;19.02;16.95;;;;;;;0.14;100.00;95116.13;1048646;28;20021;-80
2020/12/10 01:51:26;;;;;;;20.75;16.20;;;;;;;0.16;100.00;95118.50;1048635;28;20029;-80
2020/12/10 01:51:56;;;;;;;20.58;17.38;;;;;;;0.19;100.00;95115.50;1048662;28;20024;-79
2020/12/10 01:52:27;;;;;;;24.17;18.88;;;;;;;0.23;100.00;95116.66;1052236;28;20020;-79
2020/12/10 01:52:57;;;;;;;20.40;16.55;;;;;;;0.16;100.00;95110.69;1053269;28;20016;-80
2020/12/10 01:53:28;;;;;;;20.95;16.95;;;;;;;0.16;100.00;95115.91;1048531;28;20359;-80
2020/12/10 01:54:00;;;;;;;18.52;16.23;;;;;;;0.18;100.00;95116.50;1044505;28;20017;-80
2020/12/10 01:54:34;;;;;;;20.85;16.83;;;;;;;0.14;100.00;95108.31;1044478;28;20021;-79
2020/12/10 01:55:05;;;;;;;19.67;16.23;;;;;;;0.14;100.00;95112.72;1046014;28;20029;-79
2020/12/10 01:55:36;;;;;;;19.45;16.48;;;;;;;0.17;100.00;95107.88;1054744;28;20024;-80
2020/12/10 01:56:06;;;;;;;20.92;16.38;;;;;;;0.10;100.00;95108.91;1053132;28;20013;-80
2020/12/10 01:56:37;;;;;;;21.27;17.02;;;;;;;0.10;100.00;95106.31;1053037;28;20040;-80
2020/12/10 01:57:07;;;;;;;20.48;16.73;;;;;;;0.10;100.00;95111.50;1052918;28;20016;-80
2020/12/10 01:57:37;;;;;;;24.02;18.67;;;;;;;0.06;100.00;95099.91;1048700;28;20031;-80
2020/12/10 01:58:09;;;;;;;23.40;18.48;;;;;;;0.07;100.00;95104.91;1048865;28;20385;-80
2020/12/10 01:58:41;;;;;;;24.58;19.00;;;;;;;0.08;100.00;95096.09;1048990;28;20025;-80
2020/12/10 01:59:11;;;;;;;21.80;17.90;;;;;;;0.09;100.00;95105.50;1049059;28;20477;-81
2020/12/10 01:59:42;;;;;;;22.92;18.50;;;;;;;0.13;100.00;95104.09;1052916;28;20024;-81
2020/12/10 02:00:12;;;;;;;23.65;17.75;;;;;;;0.13;100.00;95100.69;1048707;28;20020;-80
2020/12/10 02:00:43;;;;;;;19.65;16.52;;;;;;;0.13;100.00;95108.53;1048899;28;20020;-79
2020/12/10 02:01:13;;;;;;;20.50;17.13;;;;;;;0.11;100.00;95100.09;1048595;28;20504;-79
2020/12/10 02:01:44;;;;;;;22.02;18.08;;;;;;;0.13;100.00;95101.50;1048606;28;20388;-79
2020/12/10 02:02:14;;;;;;;19.73;16.73;;;;;;;0.18;100.00;95106.88;1048592;28;20469;-79
2020/12/10 02:02:45;;;;;;;22.67;18.33;;;;;;;0.15;100.00;95098.69;1048685;28;20070;-79
2020/12/10 02:03:15;;;;;;;20.35;17.00;;;;;;;0.16;100.00;95098.47;1052832;28;20020;-79
2020/12/10 02:03:45;;;;;;;23.08;17.48;;;;;;;0.17;100.00;95097.47;1048976;28;20032;-80
2020/12/10 02:04:36;;;;;;;21.88;16.63;;;;;;;0.20;100.00;95096.25;1054212;28;20020;-80
2020/12/10 02:05:07;;;;;;;19.08;15.80;;;;;;;0.19;100.00;95100.66;1052946;28;20020;-80
2020/12/10 02:05:41;;;;;;;20.60;17.10;;;;;;;0.23;100.00;95101.03;1051744;28;20024;-80
2020/12/10 02:06:12;;;;;;;24.13;17.02;;;;;;;0.21;100.00;95093.41;1052963;28;20408;-80
2020/12/10 02:06:42;;;;;;;20.52;17.17;;;;;;;0.24;100.00;95102.66;1053329;28;20031;-80
2020/12/10 02:07:13;;;;;;;23.30;17.70;;;;;;;0.24;100.00;95092.22;1054543;28;20020;-80
2020/12/10 02:07:43;;;;;;;22.63;17.48;;;;;;;0.27;100.00;95099.63;1054680;28;20488;-80
2020/12/10 02:08:17;;;;;;;21.33;17.45;;;;;;;0.22;100.00;95089.81;1054929;28;20028;-80
2020/12/10 02:08:47;;;;;;;21.25;17.27;;;;;;;0.25;100.00;95088.59;1054992;28;20035;-80
2020/12/10 02:09:18;;;;;;;22.58;18.48;;;;;;;0.29;100.00;95089.78;1054837;28;20032;-81
2020/12/10 02:09:48;;;;;;;20.50;17.33;;;;;;;0.33;100.00;95090.16;1055504;28;20024;-81
2020/12/10 02:10:19;;;;;;;21.15;17.13;;;;;;;0.30;100.00;95091.38;1054140;28;20069;-80
2020/12/10 02:10:49;;;;;;;20.67;16.85;;;;;;;0.26;100.00;95088.41;1053785;28;20024;-81
2020/12/10 02:11:20;;;;;;;24.10;18.33;;;;;;;0.17;100.00;95084.44;1054557;28;20024;-81
2020/12/10 02:11:51;;;;;;;24.02;18.55;;;;;;;0.14;100.00;95089.28;1056332;28;20027;-81
2020/12/10 02:12:21;;;;;;;21.55;17.02;;;;;;;0.17;100.00;95084.44;1056628;28;20016;-81
2020/12/10 02:12:55;;;;;;;23.85;19.15;;;;;;;0.18;100.00;95082.63;1054483;28;20027;-81
2020/12/10 02:13:27;;;;;;;22.63;18.63;;;;;;;0.20;100.00;95086.63;1052663;28;20031;-82
2020/12/10 02:13:57;;;;;;;23.65;17.52;;;;;;;0.17;100.00;95087.03;1048756;28;20024;-83
2020/12/10 02:14:34;;;;;;;22.55;18.88;;;;;;;0.18;100.00;95083.41;1048557;28;20032;-82
2020/12/10 02:15:05;;;;;;;23.17;17.25;;;;;;;0.26;100.00;95085.00;1049817;28;20112;-81
2020/12/10 02:15:36;;;;;;;21.08;17.83;;;;;;;0.20;100.00;95088.41;1052926;28;20113;-81
2020/12/10 02:16:06;;;;;;;18.60;16.05;;;;;;;0.27;100.00;95081.38;1052716;28;20032;-81
2020/12/10 02:16:37;;;;;;;21.20;17.17;;;;;;;0.27;100.00;95086.59;1049030;28;20059;-81
2020/12/10 02:17:07;;;;;;;18.92;16.90;;;;;;;0.28;100.00;95085.56;1052874;28;20021;-82
2020/12/10 02:17:38;;;;;;;21.05;17.75;;;;;;;0.29;100.00;95077.53;1048613;28;20016;-81
2020/12/10 02:18:10;;;;;;;22.30;17.65;;;;;;;0.30;100.00;95075.75;1044645;28;20037;-81
2020/12/10 02:18:41;;;;;;;17.98;15.73;;;;;;;0.30;100.00;95080.94;1044320;28;20032;-81
2020/12/10 02:19:11;;;;;;;22.75;17.65;;;;;;;0.28;100.00;95085.56;1044492;28;20045;-81
2020/12/10 02:19:43;;;;;;;22.73;18.15;;;;;;;0.28;100.00;95078.56;1044832;28;20521;-81
2020/12/10 02:20:14;;;;;;;20.17;16.17;;;;;;;0.29;100.00;95087.19;1049229;28;20676;-81
2020/12/10 02:20:45;;;;;;;20.10;16.35;;;;;;;0.29;100.00;95084.56;1053199;28;20024;-81
2020/12/10 02:21:15;;;;;;;21.85;18.55;;;;;;;0.28;100.00;95088.19;1053290;28;20016;-81
2020/12/10 02:21:46;;;;;;;24.95;18.35;;;;;;;0.24;100.00;95081.81;1053099;28;20380;-81
2020/12/10 02:22:17;;;;;;;20.10;16.63;;;;;;;0.24;100.00;95092.22;1053232;28;20016;-82
2020/12/10 02:22:57;;;;;;;21.42;17.92;;;;;;;0.24;100.00;95085.22;1052951;28;20095;-80